sensor_id;sensor_type;location;lat;lon;timestamp;P1;durP1;ratioP1;P2;durP2;ratioP2
79592;SDS011;69074;45.164;9.704;2024-03-29T00:01:23;57.2;;;46.7;;
79592;SDS011;69074;45.164;9.704;2024-03-29T00:03:48;57.2;;;46.7;;
79592;SDS011;69074;45.164;9.704;2024-03-29T00:06:13;57.2;;;46.7;;
79592;SDS011;69074;45.164;9.704;2024-03-29T00:08:38;57.2;;;46.7;;
79592;SDS011;69074;45.164;9.704;2024-03-29T00:11:03;57.2;;;46.7;;
79592;SDS011;69074;45.164;9.704;2024-03-29T00:13:28;57.2;;;46.7;;
79592;SDS011;69074;45.164;9.704;2024-03-29T00:15:53;57.2;;;46.7;;
79592;SDS011;69074;45.164;9.704;2024-03-29T00:18:18;52.8;;;42.3;;
79592;SDS011;69074;45.164;9.704;2024-03-29T00:20:43;52.8;;;42.3;;
79592;SDS011;69074;45.164;9.704;2024-03-29T00:23:08;52.8;;;42.3;;
79592;SDS011;69074;45.164;9.704;2024-03-29T00:25:33;52.8;;;42.3;;
79592;SDS011;69074;45.164;9.704;2024-03-29T00:27:58;52.8;;;42.3;;
79592;SDS011;69074;45.164;9.704;2024-03-29T00:30:23;52.8;;;42.3;;
79592;SDS011;69074;45.164;9.704;2024-03-29T00:32:48;46.8;;;39.1;;
79592;SDS011;69074;45.164;9.704;2024-03-29T00:35:13;46.8;;;39.1;;
79592;SDS011;69074;45.164;9.704;2024-03-29T00:37:38;46.8;;;39.1;;
79592;SDS011;69074;45.164;9.704;2024-03-29T00:40:03;46.8;;;39.1;;
79592;SDS011;69074;45.164;9.704;2024-03-29T00:42:28;46.8;;;39.1;;
79592;SDS011;69074;45.164;9.704;2024-03-29T00:44:53;46.8;;;39.1;;
79592;SDS011;69074;45.164;9.704;2024-03-29T00:47:18;53.5;;;43.8;;
79592;SDS011;69074;45.164;9.704;2024-03-29T00:49:43;53.5;;;43.8;;
79592;SDS011;69074;45.164;9.704;2024-03-29T00:52:08;53.5;;;43.8;;
79592;SDS011;69074;45.164;9.704;2024-03-29T00:54:33;53.5;;;43.8;;
79592;SDS011;69074;45.164;9.704;2024-03-29T00:56:58;53.5;;;43.8;;
79592;SDS011;69074;45.164;9.704;2024-03-29T00:59:23;53.5;;;43.8;;
79592;SDS011;69074;45.164;9.704;2024-03-29T01:01:48;62.6;;;45.7;;
79592;SDS011;69074;45.164;9.704;2024-03-29T01:04:13;62.6;;;45.7;;
79592;SDS011;69074;45.164;9.704;2024-03-29T01:06:38;62.6;;;45.7;;
79592;SDS011;69074;45.164;9.704;2024-03-29T01:09:03;62.6;;;45.7;;
79592;SDS011;69074;45.164;9.704;2024-03-29T01:11:28;62.6;;;45.7;;
79592;SDS011;69074;45.164;9.704;2024-03-29T01:13:53;62.6;;;45.7;;
79592;SDS011;69074;45.164;9.704;2024-03-29T01:16:18;50.7;;;42.9;;
79592;SDS011;69074;45.164;9.704;2024-03-29T01:18:43;50.7;;;42.9;;
79592;SDS011;69074;45.164;9.704;2024-03-29T01:21:08;50.7;;;42.9;;
79592;SDS011;69074;45.164;9.704;2024-03-29T01:23:33;50.7;;;42.9;;
79592;SDS011;69074;45.164;9.704;2024-03-29T01:25:58;50.7;;;42.9;;
79592;SDS011;69074;45.164;9.704;2024-03-29T01:28:23;50.7;;;42.9;;
79592;SDS011;69074;45.164;9.704;2024-03-29T01:30:51;50.7;;;42.9;;
79592;SDS011;69074;45.164;9.704;2024-03-29T01:33:13;49.1;;;41.1;;
79592;SDS011;69074;45.164;9.704;2024-03-29T01:35:38;49.1;;;41.1;;
79592;SDS011;69074;45.164;9.704;2024-03-29T01:38:03;49.1;;;41.1;;
79592;SDS011;69074;45.164;9.704;2024-03-29T01:40:28;49.1;;;41.1;;
79592;SDS011;69074;45.164;9.704;2024-03-29T01:42:53;49.1;;;41.1;;
79592;SDS011;69074;45.164;9.704;2024-03-29T01:45:18;49.1;;;41.1;;
79592;SDS011;69074;45.164;9.704;2024-03-29T01:47:43;41.9;;;36.3;;
79592;SDS011;69074;45.164;9.704;2024-03-29T01:50:08;41.9;;;36.3;;
79592;SDS011;69074;45.164;9.704;2024-03-29T01:52:33;41.9;;;36.3;;
79592;SDS011;69074;45.164;9.704;2024-03-29T01:54:58;41.9;;;36.3;;
79592;SDS011;69074;45.164;9.704;2024-03-29T01:57:23;41.9;;;36.3;;
79592;SDS011;69074;45.164;9.704;2024-03-29T01:59:48;41.9;;;36.3;;
79592;SDS011;69074;45.164;9.704;2024-03-29T02:02:13;36.5;;;32.5;;
79592;SDS011;69074;45.164;9.704;2024-03-29T02:04:38;36.5;;;32.5;;
79592;SDS011;69074;45.164;9.704;2024-03-29T02:07:03;36.5;;;32.5;;
79592;SDS011;69074;45.164;9.704;2024-03-29T02:09:28;36.5;;;32.5;;
79592;SDS011;69074;45.164;9.704;2024-03-29T02:11:53;36.5;;;32.5;;
79592;SDS011;69074;45.164;9.704;2024-03-29T02:14:18;36.5;;;32.5;;
79592;SDS011;69074;45.164;9.704;2024-03-29T02:16:43;35.4;;;30.0;;
79592;SDS011;69074;45.164;9.704;2024-03-29T02:19:08;35.4;;;30.0;;
79592;SDS011;69074;45.164;9.704;2024-03-29T02:21:33;35.4;;;30.0;;
79592;SDS011;69074;45.164;9.704;2024-03-29T02:24:00;35.4;;;30.0;;
79592;SDS011;69074;45.164;9.704;2024-03-29T02:26:23;35.4;;;30.0;;
79592;SDS011;69074;45.164;9.704;2024-03-29T02:28:48;35.4;;;30.0;;
79592;SDS011;69074;45.164;9.704;2024-03-29T02:31:13;30.4;;;26.9;;
79592;SDS011;69074;45.164;9.704;2024-03-29T02:33:38;30.4;;;26.9;;
79592;SDS011;69074;45.164;9.704;2024-03-29T02:36:03;30.4;;;26.9;;
79592;SDS011;69074;45.164;9.704;2024-03-29T02:38:28;30.4;;;26.9;;
79592;SDS011;69074;45.164;9.704;2024-03-29T02:40:53;30.4;;;26.9;;
79592;SDS011;69074;45.164;9.704;2024-03-29T02:43:18;30.4;;;26.9;;
79592;SDS011;69074;45.164;9.704;2024-03-29T02:45:43;30.4;;;26.9;;
79592;SDS011;69074;45.164;9.704;2024-03-29T02:48:08;28.1;;;23.8;;
79592;SDS011;69074;45.164;9.704;2024-03-29T02:50:33;28.1;;;23.8;;
79592;SDS011;69074;45.164;9.704;2024-03-29T02:52:58;28.1;;;23.8;;
79592;SDS011;69074;45.164;9.704;2024-03-29T02:55:23;28.1;;;23.8;;
79592;SDS011;69074;45.164;9.704;2024-03-29T02:57:48;28.1;;;23.8;;
79592;SDS011;69074;45.164;9.704;2024-03-29T03:00:13;28.1;;;23.8;;
79592;SDS011;69074;45.164;9.704;2024-03-29T03:02:38;23.0;;;20.4;;
79592;SDS011;69074;45.164;9.704;2024-03-29T03:05:03;23.0;;;20.4;;
79592;SDS011;69074;45.164;9.704;2024-03-29T03:07:28;23.0;;;20.4;;
79592;SDS011;69074;45.164;9.704;2024-03-29T03:09:53;23.0;;;20.4;;
79592;SDS011;69074;45.164;9.704;2024-03-29T03:12:18;23.0;;;20.4;;
79592;SDS011;69074;45.164;9.704;2024-03-29T03:14:43;23.0;;;20.4;;
79592;SDS011;69074;45.164;9.704;2024-03-29T03:17:08;23.2;;;19.8;;
79592;SDS011;69074;45.164;9.704;2024-03-29T03:19:33;23.2;;;19.8;;
79592;SDS011;69074;45.164;9.704;2024-03-29T03:21:58;23.2;;;19.8;;
79592;SDS011;69074;45.164;9.704;2024-03-29T03:24:23;23.2;;;19.8;;
79592;SDS011;69074;45.164;9.704;2024-03-29T03:26:48;23.2;;;19.8;;
79592;SDS011;69074;45.164;9.704;2024-03-29T03:29:13;23.2;;;19.8;;
79592;SDS011;69074;45.164;9.704;2024-03-29T03:31:38;20.3;;;18.0;;
79592;SDS011;69074;45.164;9.704;2024-03-29T03:34:03;20.3;;;18.0;;
79592;SDS011;69074;45.164;9.704;2024-03-29T03:36:28;20.3;;;18.0;;
79592;SDS011;69074;45.164;9.704;2024-03-29T03:38:53;20.3;;;18.0;;
79592;SDS011;69074;45.164;9.704;2024-03-29T03:41:18;20.3;;;18.0;;
79592;SDS011;69074;45.164;9.704;2024-03-29T03:43:43;20.3;;;18.0;;
79592;SDS011;69074;45.164;9.704;2024-03-29T03:46:08;18.6;;;16.6;;
79592;SDS011;69074;45.164;9.704;2024-03-29T03:48:33;18.6;;;16.6;;
79592;SDS011;69074;45.164;9.704;2024-03-29T03:50:58;18.6;;;16.6;;
79592;SDS011;69074;45.164;9.704;2024-03-29T03:53:23;18.6;;;16.6;;
79592;SDS011;69074;45.164;9.704;2024-03-29T03:55:48;18.6;;;16.6;;
79592;SDS011;69074;45.164;9.704;2024-03-29T03:58:13;18.6;;;16.6;;
79592;SDS011;69074;45.164;9.704;2024-03-29T04:00:38;18.6;;;16.6;;
79592;SDS011;69074;45.164;9.704;2024-03-29T04:03:03;17.4;;;14.8;;
79592;SDS011;69074;45.164;9.704;2024-03-29T04:05:28;17.4;;;14.8;;
79592;SDS011;69074;45.164;9.704;2024-03-29T04:07:53;17.4;;;14.8;;
79592;SDS011;69074;45.164;9.704;2024-03-29T04:10:18;17.4;;;14.8;;
79592;SDS011;69074;45.164;9.704;2024-03-29T04:12:43;17.4;;;14.8;;
79592;SDS011;69074;45.164;9.704;2024-03-29T04:15:08;17.4;;;14.8;;
79592;SDS011;69074;45.164;9.704;2024-03-29T04:17:33;14.4;;;12.9;;
79592;SDS011;69074;45.164;9.704;2024-03-29T04:19:58;14.4;;;12.9;;
79592;SDS011;69074;45.164;9.704;2024-03-29T04:22:23;14.4;;;12.9;;
79592;SDS011;69074;45.164;9.704;2024-03-29T04:24:48;14.4;;;12.9;;
79592;SDS011;69074;45.164;9.704;2024-03-29T04:27:13;14.4;;;12.9;;
79592;SDS011;69074;45.164;9.704;2024-03-29T04:29:38;14.4;;;12.9;;
79592;SDS011;69074;45.164;9.704;2024-03-29T04:32:03;13.0;;;11.7;;
79592;SDS011;69074;45.164;9.704;2024-03-29T04:34:28;13.0;;;11.7;;
79592;SDS011;69074;45.164;9.704;2024-03-29T04:36:53;13.0;;;11.7;;
79592;SDS011;69074;45.164;9.704;2024-03-29T04:39:18;13.0;;;11.7;;
79592;SDS011;69074;45.164;9.704;2024-03-29T04:41:43;13.0;;;11.7;;
79592;SDS011;69074;45.164;9.704;2024-03-29T04:44:08;13.0;;;11.7;;
79592;SDS011;69074;45.164;9.704;2024-03-29T04:46:33;10.9;;;9.6;;
79592;SDS011;69074;45.164;9.704;2024-03-29T04:48:58;10.9;;;9.6;;
79592;SDS011;69074;45.164;9.704;2024-03-29T04:51:23;10.9;;;9.6;;
79592;SDS011;69074;45.164;9.704;2024-03-29T04:53:48;10.9;;;9.6;;
79592;SDS011;69074;45.164;9.704;2024-03-29T04:56:13;10.9;;;9.6;;
79592;SDS011;69074;45.164;9.704;2024-03-29T04:58:38;10.9;;;9.6;;
79592;SDS011;69074;45.164;9.704;2024-03-29T05:01:03;10.3;;;9.2;;
79592;SDS011;69074;45.164;9.704;2024-03-29T05:03:28;10.3;;;9.2;;
79592;SDS011;69074;45.164;9.704;2024-03-29T05:05:53;10.3;;;9.2;;
79592;SDS011;69074;45.164;9.704;2024-03-29T05:08:18;10.3;;;9.2;;
79592;SDS011;69074;45.164;9.704;2024-03-29T05:10:43;10.3;;;9.2;;
79592;SDS011;69074;45.164;9.704;2024-03-29T05:13:08;10.3;;;9.2;;
79592;SDS011;69074;45.164;9.704;2024-03-29T05:15:33;10.3;;;9.2;;
79592;SDS011;69074;45.164;9.704;2024-03-29T05:17:58;9.6;;;8.6;;
79592;SDS011;69074;45.164;9.704;2024-03-29T05:20:23;9.6;;;8.6;;
79592;SDS011;69074;45.164;9.704;2024-03-29T05:22:48;9.6;;;8.6;;
79592;SDS011;69074;45.164;9.704;2024-03-29T05:25:13;9.6;;;8.6;;
79592;SDS011;69074;45.164;9.704;2024-03-29T05:27:38;9.6;;;8.6;;
79592;SDS011;69074;45.164;9.704;2024-03-29T05:30:03;9.6;;;8.6;;
79592;SDS011;69074;45.164;9.704;2024-03-29T05:32:28;9.0;;;8.0;;
79592;SDS011;69074;45.164;9.704;2024-03-29T05:34:53;9.0;;;8.0;;
79592;SDS011;69074;45.164;9.704;2024-03-29T05:37:18;9.0;;;8.0;;
79592;SDS011;69074;45.164;9.704;2024-03-29T05:39:43;9.0;;;8.0;;
79592;SDS011;69074;45.164;9.704;2024-03-29T05:42:08;9.0;;;8.0;;
79592;SDS011;69074;45.164;9.704;2024-03-29T05:44:34;9.0;;;8.0;;
79592;SDS011;69074;45.164;9.704;2024-03-29T05:46:58;9.0;;;8.1;;
79592;SDS011;69074;45.164;9.704;2024-03-29T05:49:23;9.0;;;8.1;;
79592;SDS011;69074;45.164;9.704;2024-03-29T05:51:48;9.0;;;8.1;;
79592;SDS011;69074;45.164;9.704;2024-03-29T05:54:13;9.0;;;8.1;;
79592;SDS011;69074;45.164;9.704;2024-03-29T05:56:38;9.0;;;8.1;;
79592;SDS011;69074;45.164;9.704;2024-03-29T05:59:03;9.0;;;8.1;;
79592;SDS011;69074;45.164;9.704;2024-03-29T06:01:28;9.4;;;8.0;;
79592;SDS011;69074;45.164;9.704;2024-03-29T06:03:53;9.4;;;8.0;;
79592;SDS011;69074;45.164;9.704;2024-03-29T06:06:18;9.4;;;8.0;;
79592;SDS011;69074;45.164;9.704;2024-03-29T06:08:43;9.4;;;8.0;;
79592;SDS011;69074;45.164;9.704;2024-03-29T06:11:08;9.4;;;8.0;;
79592;SDS011;69074;45.164;9.704;2024-03-29T06:13:33;9.4;;;8.0;;
79592;SDS011;69074;45.164;9.704;2024-03-29T06:15:58;9.4;;;8.0;;
79592;SDS011;69074;45.164;9.704;2024-03-29T06:18:23;9.3;;;8.0;;
79592;SDS011;69074;45.164;9.704;2024-03-29T06:20:48;9.3;;;8.0;;
79592;SDS011;69074;45.164;9.704;2024-03-29T06:23:13;9.3;;;8.0;;
79592;SDS011;69074;45.164;9.704;2024-03-29T06:25:38;9.3;;;8.0;;
79592;SDS011;69074;45.164;9.704;2024-03-29T06:28:03;9.3;;;8.0;;
79592;SDS011;69074;45.164;9.704;2024-03-29T06:30:28;9.3;;;8.0;;
79592;SDS011;69074;45.164;9.704;2024-03-29T06:32:53;9.9;;;8.4;;
79592;SDS011;69074;45.164;9.704;2024-03-29T06:35:18;9.9;;;8.4;;
79592;SDS011;69074;45.164;9.704;2024-03-29T06:37:43;9.9;;;8.4;;
79592;SDS011;69074;45.164;9.704;2024-03-29T06:40:08;9.9;;;8.4;;
79592;SDS011;69074;45.164;9.704;2024-03-29T06:42:33;9.9;;;8.4;;
79592;SDS011;69074;45.164;9.704;2024-03-29T06:44:58;9.9;;;8.4;;
79592;SDS011;69074;45.164;9.704;2024-03-29T06:47:23;10.3;;;8.4;;
79592;SDS011;69074;45.164;9.704;2024-03-29T06:49:48;10.3;;;8.4;;
79592;SDS011;69074;45.164;9.704;2024-03-29T06:52:13;10.3;;;8.4;;
79592;SDS011;69074;45.164;9.704;2024-03-29T06:54:38;10.3;;;8.4;;
79592;SDS011;69074;45.164;9.704;2024-03-29T06:57:03;10.3;;;8.4;;
79592;SDS011;69074;45.164;9.704;2024-03-29T06:59:28;10.3;;;8.4;;
79592;SDS011;69074;45.164;9.704;2024-03-29T07:01:53;22.1;;;11.1;;
79592;SDS011;69074;45.164;9.704;2024-03-29T07:04:19;22.1;;;11.1;;
79592;SDS011;69074;45.164;9.704;2024-03-29T07:06:43;22.1;;;11.1;;
79592;SDS011;69074;45.164;9.704;2024-03-29T07:09:08;22.1;;;11.1;;
79592;SDS011;69074;45.164;9.704;2024-03-29T07:11:33;22.1;;;11.1;;
79592;SDS011;69074;45.164;9.704;2024-03-29T07:13:58;22.1;;;11.1;;
79592;SDS011;69074;45.164;9.704;2024-03-29T07:16:23;25.9;;;11.9;;
79592;SDS011;69074;45.164;9.704;2024-03-29T07:18:48;25.9;;;11.9;;
79592;SDS011;69074;45.164;9.704;2024-03-29T07:21:13;25.9;;;11.9;;
79592;SDS011;69074;45.164;9.704;2024-03-29T07:23:38;25.9;;;11.9;;
79592;SDS011;69074;45.164;9.704;2024-03-29T07:26:03;25.9;;;11.9;;
79592;SDS011;69074;45.164;9.704;2024-03-29T07:28:28;25.9;;;11.9;;
79592;SDS011;69074;45.164;9.704;2024-03-29T07:30:53;25.9;;;11.9;;
79592;SDS011;69074;45.164;9.704;2024-03-29T07:33:18;18.8;;;11.9;;
79592;SDS011;69074;45.164;9.704;2024-03-29T07:35:43;18.8;;;11.9;;
79592;SDS011;69074;45.164;9.704;2024-03-29T07:38:08;18.8;;;11.9;;
79592;SDS011;69074;45.164;9.704;2024-03-29T07:40:33;18.8;;;11.9;;
79592;SDS011;69074;45.164;9.704;2024-03-29T07:42:58;18.8;;;11.9;;
79592;SDS011;69074;45.164;9.704;2024-03-29T07:45:23;18.8;;;11.9;;
79592;SDS011;69074;45.164;9.704;2024-03-29T07:47:48;14.7;;;9.8;;
79592;SDS011;69074;45.164;9.704;2024-03-29T07:50:13;14.7;;;9.8;;
79592;SDS011;69074;45.164;9.704;2024-03-29T07:52:38;14.7;;;9.8;;
79592;SDS011;69074;45.164;9.704;2024-03-29T07:55:03;14.7;;;9.8;;
79592;SDS011;69074;45.164;9.704;2024-03-29T07:57:28;14.7;;;9.8;;
79592;SDS011;69074;45.164;9.704;2024-03-29T07:59:53;14.7;;;9.8;;
79592;SDS011;69074;45.164;9.704;2024-03-29T08:02:18;18.5;;;10.8;;
79592;SDS011;69074;45.164;9.704;2024-03-29T08:04:43;18.5;;;10.8;;
79592;SDS011;69074;45.164;9.704;2024-03-29T08:07:08;18.5;;;10.8;;
79592;SDS011;69074;45.164;9.704;2024-03-29T08:09:33;18.5;;;10.8;;
79592;SDS011;69074;45.164;9.704;2024-03-29T08:11:58;18.5;;;10.8;;
79592;SDS011;69074;45.164;9.704;2024-03-29T08:14:23;18.5;;;10.8;;
79592;SDS011;69074;45.164;9.704;2024-03-29T08:16:48;17.4;;;9.5;;
79592;SDS011;69074;45.164;9.704;2024-03-29T08:19:13;17.4;;;9.5;;
79592;SDS011;69074;45.164;9.704;2024-03-29T08:21:38;17.4;;;9.5;;
79592;SDS011;69074;45.164;9.704;2024-03-29T08:24:03;17.4;;;9.5;;
79592;SDS011;69074;45.164;9.704;2024-03-29T08:26:28;17.4;;;9.5;;
79592;SDS011;69074;45.164;9.704;2024-03-29T08:28:53;17.4;;;9.5;;
79592;SDS011;69074;45.164;9.704;2024-03-29T08:31:18;13.8;;;9.3;;
79592;SDS011;69074;45.164;9.704;2024-03-29T08:33:43;13.8;;;9.3;;
79592;SDS011;69074;45.164;9.704;2024-03-29T08:36:08;13.8;;;9.3;;
79592;SDS011;69074;45.164;9.704;2024-03-29T08:38:33;13.8;;;9.3;;
79592;SDS011;69074;45.164;9.704;2024-03-29T08:40:58;13.8;;;9.3;;
79592;SDS011;69074;45.164;9.704;2024-03-29T08:43:23;13.8;;;9.3;;
79592;SDS011;69074;45.164;9.704;2024-03-29T08:45:48;13.8;;;9.3;;
79592;SDS011;69074;45.164;9.704;2024-03-29T08:48:13;13.6;;;7.9;;
79592;SDS011;69074;45.164;9.704;2024-03-29T08:50:38;13.6;;;7.9;;
79592;SDS011;69074;45.164;9.704;2024-03-29T08:53:03;13.6;;;7.9;;
79592;SDS011;69074;45.164;9.704;2024-03-29T08:55:28;13.6;;;7.9;;
79592;SDS011;69074;45.164;9.704;2024-03-29T08:57:53;13.6;;;7.9;;
79592;SDS011;69074;45.164;9.704;2024-03-29T09:00:18;13.6;;;7.9;;
79592;SDS011;69074;45.164;9.704;2024-03-29T09:02:43;17.3;;;10.9;;
79592;SDS011;69074;45.164;9.704;2024-03-29T09:05:08;17.3;;;10.9;;
79592;SDS011;69074;45.164;9.704;2024-03-29T09:07:33;17.3;;;10.9;;
79592;SDS011;69074;45.164;9.704;2024-03-29T09:09:59;17.3;;;10.9;;
79592;SDS011;69074;45.164;9.704;2024-03-29T09:12:23;17.3;;;10.9;;
79592;SDS011;69074;45.164;9.704;2024-03-29T09:14:48;17.3;;;10.9;;
79592;SDS011;69074;45.164;9.704;2024-03-29T09:17:13;22.1;;;15.4;;
79592;SDS011;69074;45.164;9.704;2024-03-29T09:19:38;22.1;;;15.4;;
79592;SDS011;69074;45.164;9.704;2024-03-29T09:22:03;22.1;;;15.4;;
79592;SDS011;69074;45.164;9.704;2024-03-29T09:24:28;22.1;;;15.4;;
79592;SDS011;69074;45.164;9.704;2024-03-29T09:26:53;22.1;;;15.4;;
79592;SDS011;69074;45.164;9.704;2024-03-29T09:29:18;22.1;;;15.4;;
79592;SDS011;69074;45.164;9.704;2024-03-29T09:31:43;21.0;;;16.3;;
79592;SDS011;69074;45.164;9.704;2024-03-29T09:34:08;21.0;;;16.3;;
79592;SDS011;69074;45.164;9.704;2024-03-29T09:36:33;21.0;;;16.3;;
79592;SDS011;69074;45.164;9.704;2024-03-29T09:38:58;21.0;;;16.3;;
79592;SDS011;69074;45.164;9.704;2024-03-29T09:41:23;21.0;;;16.3;;
79592;SDS011;69074;45.164;9.704;2024-03-29T09:43:48;21.0;;;16.3;;
79592;SDS011;69074;45.164;9.704;2024-03-29T09:46:13;22.3;;;16.8;;
79592;SDS011;69074;45.164;9.704;2024-03-29T09:48:39;22.3;;;16.8;;
79592;SDS011;69074;45.164;9.704;2024-03-29T09:51:04;22.3;;;16.8;;
79592;SDS011;69074;45.164;9.704;2024-03-29T09:53:28;22.3;;;16.8;;
79592;SDS011;69074;45.164;9.704;2024-03-29T09:55:53;22.3;;;16.8;;
79592;SDS011;69074;45.164;9.704;2024-03-29T09:58:18;22.3;;;16.8;;
79592;SDS011;69074;45.164;9.704;2024-03-29T10:00:43;22.3;;;16.8;;
79592;SDS011;69074;45.164;9.704;2024-03-29T10:03:08;19.9;;;16.4;;
79592;SDS011;69074;45.164;9.704;2024-03-29T10:05:33;19.9;;;16.4;;
79592;SDS011;69074;45.164;9.704;2024-03-29T10:07:58;19.9;;;16.4;;
79592;SDS011;69074;45.164;9.704;2024-03-29T10:10:23;19.9;;;16.4;;
79592;SDS011;69074;45.164;9.704;2024-03-29T10:12:48;19.9;;;16.4;;
79592;SDS011;69074;45.164;9.704;2024-03-29T10:15:13;19.9;;;16.4;;
79592;SDS011;69074;45.164;9.704;2024-03-29T10:17:39;19.7;;;15.9;;
79592;SDS011;69074;45.164;9.704;2024-03-29T10:20:04;19.7;;;15.9;;
79592;SDS011;69074;45.164;9.704;2024-03-29T10:22:28;19.7;;;15.9;;
79592;SDS011;69074;45.164;9.704;2024-03-29T10:24:53;19.7;;;15.9;;
79592;SDS011;69074;45.164;9.704;2024-03-29T10:27:18;19.7;;;15.9;;
79592;SDS011;69074;45.164;9.704;2024-03-29T10:29:43;19.7;;;15.9;;
79592;SDS011;69074;45.164;9.704;2024-03-29T10:32:09;19.1;;;14.8;;
79592;SDS011;69074;45.164;9.704;2024-03-29T10:34:34;19.1;;;14.8;;
79592;SDS011;69074;45.164;9.704;2024-03-29T10:36:59;19.1;;;14.8;;
79592;SDS011;69074;45.164;9.704;2024-03-29T10:39:24;19.1;;;14.8;;
79592;SDS011;69074;45.164;9.704;2024-03-29T10:41:49;19.1;;;14.8;;
79592;SDS011;69074;45.164;9.704;2024-03-29T10:44:14;19.1;;;14.8;;
79592;SDS011;69074;45.164;9.704;2024-03-29T10:46:39;17.8;;;13.8;;
79592;SDS011;69074;45.164;9.704;2024-03-29T10:49:04;17.8;;;13.8;;
79592;SDS011;69074;45.164;9.704;2024-03-29T10:51:29;17.8;;;13.8;;
79592;SDS011;69074;45.164;9.704;2024-03-29T10:53:54;17.8;;;13.8;;
79592;SDS011;69074;45.164;9.704;2024-03-29T10:56:19;17.8;;;13.8;;
79592;SDS011;69074;45.164;9.704;2024-03-29T10:58:44;17.8;;;13.8;;
79592;SDS011;69074;45.164;9.704;2024-03-29T11:01:09;17.7;;;13.0;;
79592;SDS011;69074;45.164;9.704;2024-03-29T11:03:35;17.7;;;13.0;;
79592;SDS011;69074;45.164;9.704;2024-03-29T11:06:01;17.7;;;13.0;;
79592;SDS011;69074;45.164;9.704;2024-03-29T11:08:24;17.7;;;13.0;;
79592;SDS011;69074;45.164;9.704;2024-03-29T11:10:49;17.7;;;13.0;;
79592;SDS011;69074;45.164;9.704;2024-03-29T11:13:15;17.7;;;13.0;;
79592;SDS011;69074;45.164;9.704;2024-03-29T11:15:40;17.7;;;13.0;;
79592;SDS011;69074;45.164;9.704;2024-03-29T11:18:04;18.8;;;16.8;;
79592;SDS011;69074;45.164;9.704;2024-03-29T11:20:29;18.8;;;16.8;;
79592;SDS011;69074;45.164;9.704;2024-03-29T11:22:54;18.8;;;16.8;;
79592;SDS011;69074;45.164;9.704;2024-03-29T11:25:19;18.8;;;16.8;;
79592;SDS011;69074;45.164;9.704;2024-03-29T11:27:44;18.8;;;16.8;;
79592;SDS011;69074;45.164;9.704;2024-03-29T11:30:09;18.8;;;16.8;;
79592;SDS011;69074;45.164;9.704;2024-03-29T11:32:34;27.9;;;22.0;;
79592;SDS011;69074;45.164;9.704;2024-03-29T11:34:59;27.9;;;22.0;;
79592;SDS011;69074;45.164;9.704;2024-03-29T11:37:29;27.9;;;22.0;;
79592;SDS011;69074;45.164;9.704;2024-03-29T11:39:49;27.9;;;22.0;;
79592;SDS011;69074;45.164;9.704;2024-03-29T11:42:14;27.9;;;22.0;;
79592;SDS011;69074;45.164;9.704;2024-03-29T11:44:39;27.9;;;22.0;;
79592;SDS011;69074;45.164;9.704;2024-03-29T11:47:04;28.2;;;24.3;;
79592;SDS011;69074;45.164;9.704;2024-03-29T11:49:29;28.2;;;24.3;;
79592;SDS011;69074;45.164;9.704;2024-03-29T11:52:01;28.2;;;24.3;;
79592;SDS011;69074;45.164;9.704;2024-03-29T11:54:19;28.2;;;24.3;;
79592;SDS011;69074;45.164;9.704;2024-03-29T11:56:44;28.2;;;24.3;;
79592;SDS011;69074;45.164;9.704;2024-03-29T11:59:09;28.2;;;24.3;;
79592;SDS011;69074;45.164;9.704;2024-03-29T12:01:34;30.3;;;25.4;;
79592;SDS011;69074;45.164;9.704;2024-03-29T12:03:59;30.3;;;25.4;;
79592;SDS011;69074;45.164;9.704;2024-03-29T12:06:24;30.3;;;25.4;;
79592;SDS011;69074;45.164;9.704;2024-03-29T12:08:49;30.3;;;25.4;;
79592;SDS011;69074;45.164;9.704;2024-03-29T12:11:14;30.3;;;25.4;;
79592;SDS011;69074;45.164;9.704;2024-03-29T12:13:39;30.3;;;25.4;;
79592;SDS011;69074;45.164;9.704;2024-03-29T12:16:04;34.9;;;28.6;;
79592;SDS011;69074;45.164;9.704;2024-03-29T12:18:29;34.9;;;28.6;;
79592;SDS011;69074;45.164;9.704;2024-03-29T12:20:54;34.9;;;28.6;;
79592;SDS011;69074;45.164;9.704;2024-03-29T12:23:19;34.9;;;28.6;;
79592;SDS011;69074;45.164;9.704;2024-03-29T12:25:44;34.9;;;28.6;;
79592;SDS011;69074;45.164;9.704;2024-03-29T12:28:09;34.9;;;28.6;;
79592;SDS011;69074;45.164;9.704;2024-03-29T12:30:34;34.9;;;28.6;;
79592;SDS011;69074;45.164;9.704;2024-03-29T12:32:59;35.7;;;30.1;;
79592;SDS011;69074;45.164;9.704;2024-03-29T12:35:24;35.7;;;30.1;;
79592;SDS011;69074;45.164;9.704;2024-03-29T12:37:49;35.7;;;30.1;;
79592;SDS011;69074;45.164;9.704;2024-03-29T12:40:15;35.7;;;30.1;;
79592;SDS011;69074;45.164;9.704;2024-03-29T12:42:39;35.7;;;30.1;;
79592;SDS011;69074;45.164;9.704;2024-03-29T12:45:04;35.7;;;30.1;;
79592;SDS011;69074;45.164;9.704;2024-03-29T12:47:29;38.1;;;30.6;;
79592;SDS011;69074;45.164;9.704;2024-03-29T12:49:54;38.1;;;30.6;;
79592;SDS011;69074;45.164;9.704;2024-03-29T12:52:19;38.1;;;30.6;;
79592;SDS011;69074;45.164;9.704;2024-03-29T12:54:44;38.1;;;30.6;;
79592;SDS011;69074;45.164;9.704;2024-03-29T12:57:09;38.1;;;30.6;;
79592;SDS011;69074;45.164;9.704;2024-03-29T12:59:34;38.1;;;30.6;;
79592;SDS011;69074;45.164;9.704;2024-03-29T13:01:59;34.9;;;29.8;;
79592;SDS011;69074;45.164;9.704;2024-03-29T13:04:24;34.9;;;29.8;;
79592;SDS011;69074;45.164;9.704;2024-03-29T13:06:49;34.9;;;29.8;;
79592;SDS011;69074;45.164;9.704;2024-03-29T13:09:14;34.9;;;29.8;;
79592;SDS011;69074;45.164;9.704;2024-03-29T13:11:39;34.9;;;29.8;;
79592;SDS011;69074;45.164;9.704;2024-03-29T13:14:04;34.9;;;29.8;;
79592;SDS011;69074;45.164;9.704;2024-03-29T13:16:29;34.0;;;28.6;;
79592;SDS011;69074;45.164;9.704;2024-03-29T13:18:54;34.0;;;28.6;;
79592;SDS011;69074;45.164;9.704;2024-03-29T13:21:19;34.0;;;28.6;;
79592;SDS011;69074;45.164;9.704;2024-03-29T13:23:44;34.0;;;28.6;;
79592;SDS011;69074;45.164;9.704;2024-03-29T13:26:09;34.0;;;28.6;;
79592;SDS011;69074;45.164;9.704;2024-03-29T13:28:34;34.0;;;28.6;;
79592;SDS011;69074;45.164;9.704;2024-03-29T13:30:59;34.0;;;28.6;;
79592;SDS011;69074;45.164;9.704;2024-03-29T13:33:24;40.7;;;33.9;;
79592;SDS011;69074;45.164;9.704;2024-03-29T13:35:52;40.7;;;33.9;;
79592;SDS011;69074;45.164;9.704;2024-03-29T13:38:14;40.7;;;33.9;;
79592;SDS011;69074;45.164;9.704;2024-03-29T13:40:39;40.7;;;33.9;;
79592;SDS011;69074;45.164;9.704;2024-03-29T13:43:04;40.7;;;33.9;;
79592;SDS011;69074;45.164;9.704;2024-03-29T13:45:29;40.7;;;33.9;;
79592;SDS011;69074;45.164;9.704;2024-03-29T13:47:54;41.9;;;34.6;;
79592;SDS011;69074;45.164;9.704;2024-03-29T13:50:19;41.9;;;34.6;;
79592;SDS011;69074;45.164;9.704;2024-03-29T13:52:44;41.9;;;34.6;;
79592;SDS011;69074;45.164;9.704;2024-03-29T13:55:09;41.9;;;34.6;;
79592;SDS011;69074;45.164;9.704;2024-03-29T13:57:34;41.9;;;34.6;;
79592;SDS011;69074;45.164;9.704;2024-03-29T13:59:59;41.9;;;34.6;;
79592;SDS011;69074;45.164;9.704;2024-03-29T14:02:24;41.4;;;35.2;;
79592;SDS011;69074;45.164;9.704;2024-03-29T14:04:49;41.4;;;35.2;;
79592;SDS011;69074;45.164;9.704;2024-03-29T14:07:14;41.4;;;35.2;;
79592;SDS011;69074;45.164;9.704;2024-03-29T14:09:39;41.4;;;35.2;;
79592;SDS011;69074;45.164;9.704;2024-03-29T14:12:04;41.4;;;35.2;;
79592;SDS011;69074;45.164;9.704;2024-03-29T14:14:29;41.4;;;35.2;;
79592;SDS011;69074;45.164;9.704;2024-03-29T14:16:54;44.6;;;38.4;;
79592;SDS011;69074;45.164;9.704;2024-03-29T14:19:19;44.6;;;38.4;;
79592;SDS011;69074;45.164;9.704;2024-03-29T14:21:44;44.6;;;38.4;;
79592;SDS011;69074;45.164;9.704;2024-03-29T14:24:09;44.6;;;38.4;;
79592;SDS011;69074;45.164;9.704;2024-03-29T14:26:34;44.6;;;38.4;;
79592;SDS011;69074;45.164;9.704;2024-03-29T14:28:59;44.6;;;38.4;;
79592;SDS011;69074;45.164;9.704;2024-03-29T14:31:24;56.5;;;45.9;;
79592;SDS011;69074;45.164;9.704;2024-03-29T14:33:49;56.5;;;45.9;;
79592;SDS011;69074;45.164;9.704;2024-03-29T14:36:14;56.5;;;45.9;;
79592;SDS011;69074;45.164;9.704;2024-03-29T14:38:39;56.5;;;45.9;;